sensor_id;sensor_type;location;lat;lon;timestamp;P1;P2;P0
71858;PMS5003;59713;50.866;4.324;2023-05-19T00:00:14;10;9;
71858;PMS5003;59713;50.866;4.324;2023-05-19T00:01:13;10;10;
71858;PMS5003;59713;50.866;4.324;2023-05-19T00:02:13;10;10;
71858;PMS5003;59713;50.866;4.324;2023-05-19T00:03:13;10;10;
71858;PMS5003;59713;50.866;4.324;2023-05-19T00:04:14;13;13;
71858;PMS5003;59713;50.866;4.324;2023-05-19T00:05:13;13;13;
71858;PMS5003;59713;50.866;4.324;2023-05-19T00:05:13;13;13;
71858;PMS5003;59713;50.866;4.324;2023-05-19T00:06:13;13;13;
71858;PMS5003;59713;50.866;4.324;2023-05-19T00:07:14;14;13;
71858;PMS5003;59713;50.866;4.324;2023-05-19T00:08:13;14;13;
71858;PMS5003;59713;50.866;4.324;2023-05-19T00:09:13;14;13;
71858;PMS5003;59713;50.866;4.324;2023-05-19T00:10:14;13;12;
71858;PMS5003;59713;50.866;4.324;2023-05-19T00:11:14;13;12;
71858;PMS5003;59713;50.866;4.324;2023-05-19T00:12:14;13;12;
71858;PMS5003;59713;50.866;4.324;2023-05-19T00:13:13;14;13;
71858;PMS5003;59713;50.866;4.324;2023-05-19T00:14:13;14;13;
71858;PMS5003;59713;50.866;4.324;2023-05-19T00:14:13;14;13;
71858;PMS5003;59713;50.866;4.324;2023-05-19T00:15:14;14;13;
71858;PMS5003;59713;50.866;4.324;2023-05-19T00:16:13;18;14;
71858;PMS5003;59713;50.866;4.324;2023-05-19T00:17:13;18;14;
71858;PMS5003;59713;50.866;4.324;2023-05-19T00:18:13;18;14;
71858;PMS5003;59713;50.866;4.324;2023-05-19T00:19:13;13;13;
71858;PMS5003;59713;50.866;4.324;2023-05-19T00:20:13;13;13;
71858;PMS5003;59713;50.866;4.324;2023-05-19T00:21:14;13;13;
71858;PMS5003;59713;50.866;4.324;2023-05-19T00:22:13;11;11;
71858;PMS5003;59713;50.866;4.324;2023-05-19T00:23:13;11;11;
71858;PMS5003;59713;50.866;4.324;2023-05-19T00:23:13;11;11;
71858;PMS5003;59713;50.866;4.324;2023-05-19T00:24:13;11;11;
71858;PMS5003;59713;50.866;4.324;2023-05-19T00:25:13;15;15;
71858;PMS5003;59713;50.866;4.324;2023-05-19T00:26:13;15;15;
71858;PMS5003;59713;50.866;4.324;2023-05-19T00:27:13;15;15;
71858;PMS5003;59713;50.866;4.324;2023-05-19T00:28:13;13;13;
71858;PMS5003;59713;50.866;4.324;2023-05-19T00:29:13;13;13;
71858;PMS5003;59713;50.866;4.324;2023-05-19T00:30:14;13;13;
71858;PMS5003;59713;50.866;4.324;2023-05-19T00:31:13;16;13;
71858;PMS5003;59713;50.866;4.324;2023-05-19T00:32:13;16;13;
71858;PMS5003;59713;50.866;4.324;2023-05-19T00:32:13;16;13;
71858;PMS5003;59713;50.866;4.324;2023-05-19T00:33:13;16;13;
71858;PMS5003;59713;50.866;4.324;2023-05-19T00:34:13;15;15;
71858;PMS5003;59713;50.866;4.324;2023-05-19T00:35:13;15;15;
71858;PMS5003;59713;50.866;4.324;2023-05-19T00:36:14;15;15;
71858;PMS5003;59713;50.866;4.324;2023-05-19T00:37:13;13;11;
71858;PMS5003;59713;50.866;4.324;2023-05-19T00:38:13;13;11;
71858;PMS5003;59713;50.866;4.324;2023-05-19T00:39:13;13;11;
71858;PMS5003;59713;50.866;4.324;2023-05-19T00:40:14;13;9;
71858;PMS5003;59713;50.866;4.324;2023-05-19T00:41:13;13;9;
71858;PMS5003;59713;50.866;4.324;2023-05-19T00:41:13;13;9;
71858;PMS5003;59713;50.866;4.324;2023-05-19T00:42:13;13;9;
71858;PMS5003;59713;50.866;4.324;2023-05-19T00:43:13;15;13;
71858;PMS5003;59713;50.866;4.324;2023-05-19T00:44:14;15;13;
71858;PMS5003;59713;50.866;4.324;2023-05-19T00:45:13;15;13;
71858;PMS5003;59713;50.866;4.324;2023-05-19T00:46:13;15;13;
71858;PMS5003;59713;50.866;4.324;2023-05-19T00:47:13;15;13;
71858;PMS5003;59713;50.866;4.324;2023-05-19T00:48:13;15;13;
71858;PMS5003;59713;50.866;4.324;2023-05-19T00:49:13;16;13;
71858;PMS5003;59713;50.866;4.324;2023-05-19T00:50:13;16;13;
71858;PMS5003;59713;50.866;4.324;2023-05-19T00:51:13;16;13;
71858;PMS5003;59713;50.866;4.324;2023-05-19T00:52:13;14;14;
71858;PMS5003;59713;50.866;4.324;2023-05-19T00:53:13;14;14;
71858;PMS5003;59713;50.866;4.324;2023-05-19T00:54:14;14;14;
71858;PMS5003;59713;50.866;4.324;2023-05-19T00:55:13;16;14;
71858;PMS5003;59713;50.866;4.324;2023-05-19T00:56:14;16;14;
71858;PMS5003;59713;50.866;4.324;2023-05-19T00:57:13;16;14;
71858;PMS5003;59713;50.866;4.324;2023-05-19T00:58:13;13;13;
71858;PMS5003;59713;50.866;4.324;2023-05-19T00:59:13;13;13;
71858;PMS5003;59713;50.866;4.324;2023-05-19T00:59:13;13;13;
71858;PMS5003;59713;50.866;4.324;2023-05-19T01:00:14;13;13;
71858;PMS5003;59713;50.866;4.324;2023-05-19T01:01:13;13;13;
71858;PMS5003;59713;50.866;4.324;2023-05-19T01:02:13;13;13;
71858;PMS5003;59713;50.866;4.324;2023-05-19T01:03:13;13;13;
71858;PMS5003;59713;50.866;4.324;2023-05-19T01:04:14;14;14;
71858;PMS5003;59713;50.866;4.324;2023-05-19T01:05:13;14;14;
71858;PMS5003;59713;50.866;4.324;2023-05-19T01:06:13;14;14;
71858;PMS5003;59713;50.866;4.324;2023-05-19T01:07:14;16;16;
71858;PMS5003;59713;50.866;4.324;2023-05-19T01:08:13;16;16;
71858;PMS5003;59713;50.866;4.324;2023-05-19T01:08:13;16;16;
71858;PMS5003;59713;50.866;4.324;2023-05-19T01:09:13;16;16;
71858;PMS5003;59713;50.866;4.324;2023-05-19T01:10:13;14;13;
71858;PMS5003;59713;50.866;4.324;2023-05-19T01:11:13;14;13;
71858;PMS5003;59713;50.866;4.324;2023-05-19T01:12:14;14;13;
71858;PMS5003;59713;50.866;4.324;2023-05-19T01:13:13;16;14;
71858;PMS5003;59713;50.866;4.324;2023-05-19T01:14:14;16;14;
71858;PMS5003;59713;50.866;4.324;2023-05-19T01:15:13;16;14;
71858;PMS5003;59713;50.866;4.324;2023-05-19T01:16:16;18;13;
71858;PMS5003;59713;50.866;4.324;2023-05-19T01:17:15;18;13;
71858;PMS5003;59713;50.866;4.324;2023-05-19T01:17:15;18;13;
71858;PMS5003;59713;50.866;4.324;2023-05-19T01:18:14;18;13;
71858;PMS5003;59713;50.866;4.324;2023-05-19T01:19:19;19;16;
71858;PMS5003;59713;50.866;4.324;2023-05-19T01:20:14;19;16;
71858;PMS5003;59713;50.866;4.324;2023-05-19T01:21:22;19;16;
71858;PMS5003;59713;50.866;4.324;2023-05-19T01:22:17;17;15;
71858;PMS5003;59713;50.866;4.324;2023-05-19T01:23:17;17;15;
71858;PMS5003;59713;50.866;4.324;2023-05-19T01:24:21;17;15;
71858;PMS5003;59713;50.866;4.324;2023-05-19T01:25:32;15;15;
71858;PMS5003;59713;50.866;4.324;2023-05-19T01:26:16;15;15;
71858;PMS5003;59713;50.866;4.324;2023-05-19T01:26:34;15;15;
71858;PMS5003;59713;50.866;4.324;2023-05-19T01:27:19;15;15;
71858;PMS5003;59713;50.866;4.324;2023-05-19T01:28:19;14;12;
71858;PMS5003;59713;50.866;4.324;2023-05-19T01:29:16;14;12;
71858;PMS5003;59713;50.866;4.324;2023-05-19T01:30:16;14;12;
71858;PMS5003;59713;50.866;4.324;2023-05-19T01:31:13;16;16;
71858;PMS5003;59713;50.866;4.324;2023-05-19T01:32:13;16;16;
71858;PMS5003;59713;50.866;4.324;2023-05-19T01:33:14;16;16;
71858;PMS5003;59713;50.866;4.324;2023-05-19T01:34:13;18;16;
71858;PMS5003;59713;50.866;4.324;2023-05-19T01:35:13;18;16;
71858;PMS5003;59713;50.866;4.324;2023-05-19T01:35:13;18;16;
71858;PMS5003;59713;50.866;4.324;2023-05-19T01:36:13;18;16;
71858;PMS5003;59713;50.866;4.324;2023-05-19T01:37:14;20;17;
71858;PMS5003;59713;50.866;4.324;2023-05-19T01:38:14;20;17;
71858;PMS5003;59713;50.866;4.324;2023-05-19T01:39:14;20;17;
71858;PMS5003;59713;50.866;4.324;2023-05-19T01:40:14;19;15;
71858;PMS5003;59713;50.866;4.324;2023-05-19T01:41:13;19;15;
71858;PMS5003;59713;50.866;4.324;2023-05-19T01:42:13;19;15;
71858;PMS5003;59713;50.866;4.324;2023-05-19T01:43:15;17;14;
71858;PMS5003;59713;50.866;4.324;2023-05-19T01:44:14;17;14;
71858;PMS5003;59713;50.866;4.324;2023-05-19T01:45:13;17;14;
71858;PMS5003;59713;50.866;4.324;2023-05-19T01:45:13;17;14;
71858;PMS5003;59713;50.866;4.324;2023-05-19T01:46:14;15;15;
71858;PMS5003;59713;50.866;4.324;2023-05-19T01:47:14;15;15;
71858;PMS5003;59713;50.866;4.324;2023-05-19T01:48:14;15;15;
71858;PMS5003;59713;50.866;4.324;2023-05-19T01:49:13;19;15;
71858;PMS5003;59713;50.866;4.324;2023-05-19T01:50:14;19;15;
71858;PMS5003;59713;50.866;4.324;2023-05-19T01:51:15;19;15;
71858;PMS5003;59713;50.866;4.324;2023-05-19T01:52:14;13;13;
71858;PMS5003;59713;50.866;4.324;2023-05-19T01:53:14;13;13;
71858;PMS5003;59713;50.866;4.324;2023-05-19T01:54:14;13;13;
71858;PMS5003;59713;50.866;4.324;2023-05-19T01:54:14;13;13;
71858;PMS5003;59713;50.866;4.324;2023-05-19T01:55:14;11;11;
71858;PMS5003;59713;50.866;4.324;2023-05-19T01:56:15;11;11;
71858;PMS5003;59713;50.866;4.324;2023-05-19T01:57:15;11;11;
71858;PMS5003;59713;50.866;4.324;2023-05-19T01:58:16;13;12;
71858;PMS5003;59713;50.866;4.324;2023-05-19T01:59:19;13;12;
71858;PMS5003;59713;50.866;4.324;2023-05-19T02:00:15;13;12;
71858;PMS5003;59713;50.866;4.324;2023-05-19T02:01:15;20;17;
71858;PMS5003;59713;50.866;4.324;2023-05-19T02:02:19;20;17;
71858;PMS5003;59713;50.866;4.324;2023-05-19T02:03:17;20;17;
71858;PMS5003;59713;50.866;4.324;2023-05-19T02:03:17;20;17;
71858;PMS5003;59713;50.866;4.324;2023-05-19T02:04:16;16;11;
71858;PMS5003;59713;50.866;4.324;2023-05-19T02:05:17;16;11;
71858;PMS5003;59713;50.866;4.324;2023-05-19T02:06:17;16;11;
71858;PMS5003;59713;50.866;4.324;2023-05-19T02:07:14;17;17;
71858;PMS5003;59713;50.866;4.324;2023-05-19T02:08:15;17;17;
71858;PMS5003;59713;50.866;4.324;2023-05-19T02:09:15;17;17;
71858;PMS5003;59713;50.866;4.324;2023-05-19T02:10:15;15;14;
71858;PMS5003;59713;50.866;4.324;2023-05-19T02:11:16;15;14;
71858;PMS5003;59713;50.866;4.324;2023-05-19T02:12:15;15;14;
71858;PMS5003;59713;50.866;4.324;2023-05-19T02:12:15;15;14;
71858;PMS5003;59713;50.866;4.324;2023-05-19T02:13:14;18;17;
71858;PMS5003;59713;50.866;4.324;2023-05-19T02:14:14;18;17;
71858;PMS5003;59713;50.866;4.324;2023-05-19T02:15:14;18;17;
71858;PMS5003;59713;50.866;4.324;2023-05-19T02:16:14;16;15;
71858;PMS5003;59713;50.866;4.324;2023-05-19T02:17:14;16;15;
71858;PMS5003;59713;50.866;4.324;2023-05-19T02:18:14;16;15;
71858;PMS5003;59713;50.866;4.324;2023-05-19T02:19:18;11;8;
71858;PMS5003;59713;50.866;4.324;2023-05-19T02:20:14;11;8;
71858;PMS5003;59713;50.866;4.324;2023-05-19T02:21:14;11;8;
71858;PMS5003;59713;50.866;4.324;2023-05-19T02:21:14;11;8;
71858;PMS5003;59713;50.866;4.324;2023-05-19T02:22:15;15;15;
71858;PMS5003;59713;50.866;4.324;2023-05-19T02:23:14;15;15;
71858;PMS5003;59713;50.866;4.324;2023-05-19T02:24:15;15;15;
71858;PMS5003;59713;50.866;4.324;2023-05-19T02:25:14;19;17;
71858;PMS5003;59713;50.866;4.324;2023-05-19T02:26:14;19;17;
71858;PMS5003;59713;50.866;4.324;2023-05-19T02:27:14;19;17;
71858;PMS5003;59713;50.866;4.324;2023-05-19T02:28:14;15;15;
71858;PMS5003;59713;50.866;4.324;2023-05-19T02:29:14;15;15;
71858;PMS5003;59713;50.866;4.324;2023-05-19T02:30:14;15;15;
71858;PMS5003;59713;50.866;4.324;2023-05-19T02:31:14;15;12;
71858;PMS5003;59713;50.866;4.324;2023-05-19T02:32:14;15;12;
71858;PMS5003;59713;50.866;4.324;2023-05-19T02:33:14;15;12;
71858;PMS5003;59713;50.866;4.324;2023-05-19T02:34:14;20;16;
71858;PMS5003;59713;50.866;4.324;2023-05-19T02:35:14;20;16;
71858;PMS5003;59713;50.866;4.324;2023-05-19T02:36:14;20;16;
71858;PMS5003;59713;50.866;4.324;2023-05-19T02:37:14;14;12;
71858;PMS5003;59713;50.866;4.324;2023-05-19T02:38:14;14;12;
71858;PMS5003;59713;50.866;4.324;2023-05-19T02:39:14;14;12;
71858;PMS5003;59713;50.866;4.324;2023-05-19T02:40:14;20;17;
71858;PMS5003;59713;50.866;4.324;2023-05-19T02:40:14;20;17;
71858;PMS5003;59713;50.866;4.324;2023-05-19T02:41:14;20;17;
71858;PMS5003;59713;50.866;4.324;2023-05-19T02:42:14;20;17;
71858;PMS5003;59713;50.866;4.324;2023-05-19T02:43:14;21;18;
71858;PMS5003;59713;50.866;4.324;2023-05-19T02:44:14;21;18;
71858;PMS5003;59713;50.866;4.324;2023-05-19T02:45:14;21;18;
71858;PMS5003;59713;50.866;4.324;2023-05-19T02:46:14;20;16;
71858;PMS5003;59713;50.866;4.324;2023-05-19T02:47:14;20;16;
71858;PMS5003;59713;50.866;4.324;2023-05-19T02:48:14;20;16;
71858;PMS5003;59713;50.866;4.324;2023-05-19T02:49:14;17;17;
71858;PMS5003;59713;50.866;4.324;2023-05-19T02:49:14;17;17;
71858;PMS5003;59713;50.866;4.324;2023-05-19T02:50:14;17;17;
71858;PMS5003;59713;50.866;4.324;2023-05-19T02:51:14;17;17;
71858;PMS5003;59713;50.866;4.324;2023-05-19T02:52:14;18;15;
71858;PMS5003;59713;50.866;4.324;2023-05-19T02:53:14;18;15;
71858;PMS5003;59713;50.866;4.324;2023-05-19T02:54:14;18;15;
71858;PMS5003;59713;50.866;4.324;2023-05-19T02:55:14;16;16;
71858;PMS5003;59713;50.866;4.324;2023-05-19T02:56:14;16;16;
71858;PMS5003;59713;50.866;4.324;2023-05-19T02:57:14;16;16;
71858;PMS5003;59713;50.866;4.324;2023-05-19T02:58:14;13;11;
71858;PMS5003;59713;50.866;4.324;2023-05-19T02:59:18;13;11;
71858;PMS5003;59713;50.866;4.324;2023-05-19T02:59:18;13;11;
71858;PMS5003;59713;50.866;4.324;2023-05-19T03:00:14;13;11;
71858;PMS5003;59713;50.866;4.324;2023-05-19T03:01:14;18;16;
71858;PMS5003;59713;50.866;4.324;2023-05-19T03:02:14;18;16;
71858;PMS5003;59713;50.866;4.324;2023-05-19T03:03:14;18;16;
71858;PMS5003;59713;50.866;4.324;2023-05-19T03:04:14;19;14;
71858;PMS5003;59713;50.866;4.324;2023-05-19T03:05:14;19;14;
71858;PMS5003;59713;50.866;4.324;2023-05-19T03:06:14;19;14;
71858;PMS5003;59713;50.866;4.324;2023-05-19T03:07:14;12;12;
71858;PMS5003;59713;50.866;4.324;2023-05-19T03:08:14;12;12;
71858;PMS5003;59713;50.866;4.324;2023-05-19T03:08:14;12;12;
71858;PMS5003;59713;50.866;4.324;2023-05-19T03:09:16;12;12;
71858;PMS5003;59713;50.866;4.324;2023-05-19T03:10:14;17;16;
71858;PMS5003;59713;50.866;4.324;2023-05-19T03:11:14;17;16;
71858;PMS5003;59713;50.866;4.324;2023-05-19T03:12:14;17;16;
71858;PMS5003;59713;50.866;4.324;2023-05-19T03:13:14;19;19;
71858;PMS5003;59713;50.866;4.324;2023-05-19T03:14:14;19;19;
71858;PMS5003;59713;50.866;4.324;2023-05-19T03:15:14;19;19;
71858;PMS5003;59713;50.866;4.324;2023-05-19T03:16:14;17;15;
71858;PMS5003;59713;50.866;4.324;2023-05-19T03:17:15;17;15;
71858;PMS5003;59713;50.866;4.324;2023-05-19T03:17:15;17;15;
71858;PMS5003;59713;50.866;4.324;2023-05-19T03:18:15;17;15;
71858;PMS5003;59713;50.866;4.324;2023-05-19T03:19:14;19;17;
71858;PMS5003;59713;50.866;4.324;2023-05-19T03:20:14;19;17;
71858;PMS5003;59713;50.866;4.324;2023-05-19T03:21:14;19;17;
71858;PMS5003;59713;50.866;4.324;2023-05-19T03:22:14;16;16;
71858;PMS5003;59713;50.866;4.324;2023-05-19T03:23:14;16;16;
71858;PMS5003;59713;50.866;4.324;2023-05-19T03:24:14;16;16;
71858;PMS5003;59713;50.866;4.324;2023-05-19T03:25:15;18;16;
71858;PMS5003;59713;50.866;4.324;2023-05-19T03:26:14;18;16;
71858;PMS5003;59713;50.866;4.324;2023-05-19T03:26:14;18;16;
71858;PMS5003;59713;50.866;4.324;2023-05-19T03:27:14;18;16;
71858;PMS5003;59713;50.866;4.324;2023-05-19T03:28:14;18;16;
71858;PMS5003;59713;50.866;4.324;2023-05-19T03:29:14;18;16;
71858;PMS5003;59713;50.866;4.324;2023-05-19T03:30:14;18;16;
71858;PMS5003;59713;50.866;4.324;2023-05-19T03:31:14;17;16;
71858;PMS5003;59713;50.866;4.324;2023-05-19T03:32:14;17;16;
71858;PMS5003;59713;50.866;4.324;2023-05-19T03:33:14;17;16;
71858;PMS5003;59713;50.866;4.324;2023-05-19T03:34:14;19;16;
71858;PMS5003;59713;50.866;4.324;2023-05-19T03:35:14;19;16;
71858;PMS5003;59713;50.866;4.324;2023-05-19T03:36:14;19;16;
71858;PMS5003;59713;50.866;4.324;2023-05-19T03:36:14;19;16;
71858;PMS5003;59713;50.866;4.324;2023-05-19T03:37:14;18;15;
71858;PMS5003;59713;50.866;4.324;2023-05-19T03:38:14;18;15;
71858;PMS5003;59713;50.866;4.324;2023-05-19T03:39:14;18;15;
71858;PMS5003;59713;50.866;4.324;2023-05-19T03:40:14;18;15;
71858;PMS5003;59713;50.866;4.324;2023-05-19T03:41:14;18;15;
71858;PMS5003;59713;50.866;4.324;2023-05-19T03:42:14;18;15;
71858;PMS5003;59713;50.866;4.324;2023-05-19T03:43:14;21;16;
71858;PMS5003;59713;50.866;4.324;2023-05-19T03:44:14;21;16;
71858;PMS5003;59713;50.866;4.324;2023-05-19T03:45:14;21;16;
71858;PMS5003;59713;50.866;4.324;2023-05-19T03:45:14;21;16;
71858;PMS5003;59713;50.866;4.324;2023-05-19T03:46:14;23;19;
71858;PMS5003;59713;50.866;4.324;2023-05-19T03:47:14;23;19;
71858;PMS5003;59713;50.866;4.324;2023-05-19T03:48:14;23;19;
71858;PMS5003;59713;50.866;4.324;2023-05-19T03:49:14;13;12;
71858;PMS5003;59713;50.866;4.324;2023-05-19T03:50:14;13;12;
71858;PMS5003;59713;50.866;4.324;2023-05-19T03:51:14;13;12;
71858;PMS5003;59713;50.866;4.324;2023-05-19T03:52:14;18;18;
71858;PMS5003;59713;50.866;4.324;2023-05-19T03:53:14;18;18;
71858;PMS5003;59713;50.866;4.324;2023-05-19T03:54:14;18;18;
71858;PMS5003;59713;50.866;4.324;2023-05-19T03:54:14;18;18;
71858;PMS5003;59713;50.866;4.324;2023-05-19T03:55:14;17;17;
71858;PMS5003;59713;50.866;4.324;2023-05-19T03:56:14;17;17;
71858;PMS5003;59713;50.866;4.324;2023-05-19T03:57:14;17;17;
71858;PMS5003;59713;50.866;4.324;2023-05-19T03:58:14;18;17;
71858;PMS5003;59713;50.866;4.324;2023-05-19T03:59:15;18;17;
71858;PMS5003;59713;50.866;4.324;2023-05-19T04:00:14;18;17;
71858;PMS5003;59713;50.866;4.324;2023-05-19T04:01:14;20;17;
71858;PMS5003;59713;50.866;4.324;2023-05-19T04:02:14;20;17;
71858;PMS5003;59713;50.866;4.324;2023-05-19T04:03:14;20;17;
71858;PMS5003;59713;50.866;4.324;2023-05-19T04:03:14;20;17;
71858;PMS5003;59713;50.866;4.324;2023-05-19T04:04:14;15;15;
71858;PMS5003;59713;50.866;4.324;2023-05-19T04:05:14;15;15;
71858;PMS5003;59713;50.866;4.324;2023-05-19T04:06:14;15;15;
71858;PMS5003;59713;50.866;4.324;2023-05-19T04:07:14;18;18;
71858;PMS5003;59713;50.866;4.324;2023-05-19T04:08:14;18;18;
71858;PMS5003;59713;50.866;4.324;2023-05-19T04:09:14;18;18;
71858;PMS5003;59713;50.866;4.324;2023-05-19T04:10:14;19;17;
71858;PMS5003;59713;50.866;4.324;2023-05-19T04:11:14;19;17;
71858;PMS5003;59713;50.866;4.324;2023-05-19T04:12:14;19;17;
71858;PMS5003;59713;50.866;4.324;2023-05-19T04:13:14;16;16;
71858;PMS5003;59713;50.866;4.324;2023-05-19T04:13:14;16;16;
71858;PMS5003;59713;50.866;4.324;2023-05-19T04:14:14;16;16;
71858;PMS5003;59713;50.866;4.324;2023-05-19T04:15:14;16;16;
71858;PMS5003;59713;50.866;4.324;2023-05-19T04:16:14;14;12;
71858;PMS5003;59713;50.866;4.324;2023-05-19T04:17:14;14;12;
71858;PMS5003;59713;50.866;4.324;2023-05-19T04:18:14;14;12;
71858;PMS5003;59713;50.866;4.324;2023-05-19T04:19:14;17;16;
71858;PMS5003;59713;50.866;4.324;2023-05-19T04:20:28;17;16;
71858;PMS5003;59713;50.866;4.324;2023-05-19T04:21:14;17;16;
71858;PMS5003;59713;50.866;4.324;2023-05-19T04:22:14;18;16;
71858;PMS5003;59713;50.866;4.324;2023-05-19T04:22:14;18;16;
71858;PMS5003;59713;50.866;4.324;2023-05-19T04:23:14;18;16;
71858;PMS5003;59713;50.866;4.324;2023-05-19T04:24:14;18;16;
71858;PMS5003;59713;50.866;4.324;2023-05-19T04:25:14;16;16;
71858;PMS5003;59713;50.866;4.324;2023-05-19T04:26:14;16;16;
71858;PMS5003;59713;50.866;4.324;2023-05-19T04:27:14;16;16;
71858;PMS5003;59713;50.866;4.324;2023-05-19T04:28:14;22;18;
71858;PMS5003;59713;50.866;4.324;2023-05-19T04:29:14;22;18;
71858;PMS5003;59713;50.866;4.324;2023-05-19T04:30:14;22;18;
71858;PMS5003;59713;50.866;4.324;2023-05-19T04:31:14;16;16;
71858;PMS5003;59713;50.866;4.324;2023-05-19T04:32:14;16;16;
71858;PMS5003;59713;50.866;4.324;2023-05-19T04:32:14;16;16;
71858;PMS5003;59713;50.866;4.324;2023-05-19T04:33:14;16;16;
71858;PMS5003;59713;50.866;4.324;2023-05-19T04:34:14;17;16;
71858;PMS5003;59713;50.866;4.324;2023-05-19T04:35:14;17;16;
71858;PMS5003;59713;50.866;4.324;2023-05-19T04:36:14;17;16;
71858;PMS5003;59713;50.866;4.324;2023-05-19T04:37:15;14;14;
71858;PMS5003;59713;50.866;4.324;2023-05-19T04:38:14;14;14;
71858;PMS5003;59713;50.866;4.324;2023-05-19T04:39:14;14;14;
71858;PMS5003;59713;50.866;4.324;2023-05-19T04:40:14;17;16;
71858;PMS5003;59713;50.866;4.324;2023-05-19T04:41:14;17;16;
71858;PMS5003;59713;50.866;4.324;2023-05-19T04:41:14;17;16;
71858;PMS5003;59713;50.866;4.324;2023-05-19T04:42:14;17;16;
71858;PMS5003;59713;50.866;4.324;2023-05-19T04:43:14;17;17;
71858;PMS5003;59713;50.866;4.324;2023-05-19T04:44:14;17;17;
71858;PMS5003;59713;50.866;4.324;2023-05-19T04:45:14;17;17;
71858;PMS5003;59713;50.866;4.324;2023-05-19T04:46:14;20;17;
71858;PMS5003;59713;50.866;4.324;2023-05-19T04:47:14;20;17;
71858;PMS5003;59713;50.866;4.324;2023-05-19T04:48:14;20;17;
71858;PMS5003;59713;50.866;4.324;2023-05-19T04:49:14;20;18;
71858;PMS5003;59713;50.866;4.324;2023-05-19T04:50:14;20;18;
71858;PMS5003;59713;50.866;4.324;2023-05-19T04:50:14;20;18;
71858;PMS5003;59713;50.866;4.324;2023-05-19T04:51:14;20;18;
71858;PMS5003;59713;50.866;4.324;2023-05-19T04:52:14;19;18;
71858;PMS5003;59713;50.866;4.324;2023-05-19T04:53:14;19;18;
71858;PMS5003;59713;50.866;4.324;2023-05-19T04:54:14;19;18;
71858;PMS5003;59713;50.866;4.324;2023-05-19T04:55:14;18;17;
71858;PMS5003;59713;50.866;4.324;2023-05-19T04:56:14;18;17;
71858;PMS5003;59713;50.866;4.324;2023-05-19T04:57:14;18;17;
71858;PMS5003;59713;50.866;4.324;2023-05-19T04:58:14;20;20;
71858;PMS5003;59713;50.866;4.324;2023-05-19T04:59:14;20;20;
71858;PMS5003;59713;50.866;4.324;2023-05-19T04:59:14;20;20;
71858;PMS5003;59713;50.866;4.324;2023-05-19T05:00:14;20;20;
71858;PMS5003;59713;50.866;4.324;2023-05-19T05:01:14;19;17;
71858;PMS5003;59713;50.866;4.324;2023-05-19T05:02:14;19;17;
71858;PMS5003;59713;50.866;4.324;2023-05-19T05:03:14;19;17;
71858;PMS5003;59713;50.866;4.324;2023-05-19T05:04:14;14;14;
71858;PMS5003;59713;50.866;4.324;2023-05-19T05:05:14;14;14;
71858;PMS5003;59713;50.866;4.324;2023-05-19T05:06:14;14;14;
71858;PMS5003;59713;50.866;4.324;2023-05-19T05:07:14;20;18;
71858;PMS5003;59713;50.866;4.324;2023-05-19T05:08:14;20;18;
71858;PMS5003;59713;50.866;4.324;2023-05-19T05:09:14;20;18;
71858;PMS5003;59713;50.866;4.324;2023-05-19T05:09:14;20;18;
71858;PMS5003;59713;50.866;4.324;2023-05-19T05:10:14;20;18;
71858;PMS5003;59713;50.866;4.324;2023-05-19T05:11:14;20;18;
71858;PMS5003;59713;50.866;4.324;2023-05-19T05:12:14;20;18;
71858;PMS5003;59713;50.866;4.324;2023-05-19T05:13:14;19;19;
71858;PMS5003;59713;50.866;4.324;2023-05-19T05:14:14;19;19;
71858;PMS5003;59713;50.866;4.324;2023-05-19T05:15:14;19;19;
71858;PMS5003;59713;50.866;4.324;2023-05-19T05:16:14;17;16;
71858;PMS5003;59713;50.866;4.324;2023-05-19T05:17:14;17;16;
71858;PMS5003;59713;50.866;4.324;2023-05-19T05:18:15;17;16;
71858;PMS5003;59713;50.866;4.324;2023-05-19T05:18:15;17;16;
71858;PMS5003;59713;50.866;4.324;2023-05-19T05:19:14;19;16;
71858;PMS5003;59713;50.866;4.324;2023-05-19T05:20:14;19;16;
71858;PMS5003;59713;50.866;4.324;2023-05-19T05:21:14;19;16;
71858;PMS5003;59713;50.866;4.324;2023-05-19T05:22:14;21;20;
71858;PMS5003;59713;50.866;4.324;2023-05-19T05:23:14;21;20;
71858;PMS5003;59713;50.866;4.324;2023-05-19T05:24:14;21;20;
71858;PMS5003;59713;50.866;4.324;2023-05-19T05:25:14;23;19;
71858;PMS5003;59713;50.866;4.324;2023-05-19T05:26:15;23;19;
71858;PMS5003;59713;50.866;4.324;2023-05-19T05:27:14;23;19;
71858;PMS5003;59713;50.866;4.324;2023-05-19T05:27:14;23;19;
71858;PMS5003;59713;50.866;4.324;2023-05-19T05:28:14;15;15;
71858;PMS5003;59713;50.866;4.324;2023-05-19T05:29:14;15;15;
71858;PMS5003;59713;50.866;4.324;2023-05-19T05:30:14;15;15;
71858;PMS5003;59713;50.866;4.324;2023-05-19T05:31:14;20;19;
71858;PMS5003;59713;50.866;4.324;2023-05-19T05:32:14;20;19;
71858;PMS5003;59713;50.866;4.324;2023-05-19T05:33:14;20;19;
71858;PMS5003;59713;50.866;4.324;2023-05-19T05:34:14;20;18;
71858;PMS5003;59713;50.866;4.324;2023-05-19T05:35:14;20;18;
71858;PMS5003;59713;50.866;4.324;2023-05-19T05:36:15;20;18;
71858;PMS5003;59713;50.866;4.324;2023-05-19T05:36:15;20;18;
71858;PMS5003;59713;50.866;4.324;2023-05-19T05:37:14;17;16;
71858;PMS5003;59713;50.866;4.324;2023-05-19T05:38:14;17;16;
71858;PMS5003;59713;50.866;4.324;2023-05-19T05:39:14;17;16;
71858;PMS5003;59713;50.866;4.324;2023-05-19T05:40:14;24;19;
71858;PMS5003;59713;50.866;4.324;2023-05-19T05:41:14;24;19;
71858;PMS5003;59713;50.866;4.324;2023-05-19T05:42:14;24;19;
71858;PMS5003;59713;50.866;4.324;2023-05-19T05:43:14;16;16;
71858;PMS5003;59713;50.866;4.324;2023-05-19T05:44:14;16;16;
71858;PMS5003;59713;50.866;4.324;2023-05-19T05:45:14;16;16;
71858;PMS5003;59713;50.866;4.324;2023-05-19T05:45:14;16;16;
71858;PMS5003;59713;50.866;4.324;2023-05-19T05:46:15;21;19;
71858;PMS5003;59713;50.866;4.324;2023-05-19T05:47:14;21;19;
71858;PMS5003;59713;50.866;4.324;2023-05-19T05:48:14;21;19;
71858;PMS5003;59713;50.866;4.324;2023-05-19T05:49:14;17;16;
71858;PMS5003;59713;50.866;4.324;2023-05-19T05:50:14;17;16;
71858;PMS5003;59713;50.866;4.324;2023-05-19T05:51:14;17;16;
71858;PMS5003;59713;50.866;4.324;2023-05-19T05:52:14;22;18;
71858;PMS5003;59713;50.866;4.324;2023-05-19T05:53:15;22;18;
71858;PMS5003;59713;50.866;4.324;2023-05-19T05:54:15;22;18;
71858;PMS5003;59713;50.866;4.324;2023-05-19T05:55:22;17;15;
71858;PMS5003;59713;50.866;4.324;2023-05-19T05:55:22;17;15;
71858;PMS5003;59713;50.866;4.324;2023-05-19T05:56:14;17;15;
71858;PMS5003;59713;50.866;4.324;2023-05-19T05:57:14;17;15;
71858;PMS5003;59713;50.866;4.324;2023-05-19T05:58:14;17;15;
71858;PMS5003;59713;50.866;4.324;2023-05-19T05:59:15;17;15;
71858;PMS5003;59713;50.866;4.324;2023-05-19T06:00:14;17;15;
71858;PMS5003;59713;50.866;4.324;2023-05-19T06:01:14;17;17;